Time;durP1;ratioP1;P1;durP2;ratioP2;P2;SDS_P1;SDS_P2;PMS_P1;PMS_P2;Temp;Humidity;BMP_temperature;BMP_pressure;BME280_temperature;BME280_humidity;BME280_pressure;Samples;Min_cycle;Max_cycle;Signal;HPM_P1;HPM_P2
2022/04/06 00:00:25;;;;;;;6.85;6.15;;;;;;;;;;5074596;28;20071;-59
2022/04/06 00:02:50;;;;;;;6.05;5.65;;;;;;;;;;5074013;28;20324;-59
2022/04/06 00:05:16;;;;;;;5.90;5.50;;;;;;;;;;5076723;28;20036;-60
2022/04/06 00:07:43;;;;;;;6.63;6.13;;;;;;;;;;5080943;28;20036;-59
2022/04/06 00:10:10;;;;;;;5.90;5.40;;;;;;;;;;5078040;28;20384;-59
2022/04/06 00:12:37;;;;;;;5.22;4.82;;;;;;;;;;5076800;28;20024;-52
2022/04/06 00:15:05;;;;;;;6.03;5.53;;;;;;;;;;5074726;28;20067;-52
2022/04/06 00:17:31;;;;;;;6.55;6.05;;;;;;;;;;5076738;28;20094;-59
2022/04/06 00:19:57;;;;;;;7.00;6.50;;;;;;;;;;5078827;28;20043;-59
2022/04/06 00:22:22;;;;;;;6.18;5.72;;;;;;;;;;5073874;28;20465;-50
2022/04/06 00:24:47;;;;;;;6.30;5.80;;;;;;;;;;5074847;28;20036;-50
2022/04/06 00:27:13;;;;;;;6.22;5.72;;;;;;;;;;5075873;28;20119;-59
2022/04/06 00:29:39;;;;;;;5.90;5.47;;;;;;;;;;5075306;28;20565;-59
2022/04/06 00:32:04;;;;;;;6.80;6.30;;;;;;;;;;5076536;28;20082;-59
2022/04/06 00:37:14;;;;;;;6.70;6.20;;;;;;;;;;5073673;28;20032;-52
2022/04/06 00:39:40;;;;;;;7.15;6.65;;;;;;;;;;5075068;28;20035;-51
2022/04/06 00:42:07;;;;;;;7.53;7.03;;;;;;;;;;5076525;28;20044;-54
2022/04/06 00:44:35;;;;;;;6.65;6.05;;;;;;;;;;5076243;28;20075;-59
2022/04/06 00:47:05;;;;;;;6.85;6.35;;;;;;;;;;5074067;28;20125;-59
2022/04/06 00:49:31;;;;;;;7.65;7.05;;;;;;;;;;5076334;28;20032;-52
2022/04/06 00:51:59;;;;;;;7.90;7.40;;;;;;;;;;5075348;28;20032;-53
2022/04/06 00:54:25;;;;;;;6.85;6.35;;;;;;;;;;5077753;28;20046;-50
2022/04/06 00:56:50;;;;;;;8.00;7.50;;;;;;;;;;5076710;28;20135;-59
2022/04/06 00:59:18;;;;;;;7.30;6.80;;;;;;;;;;5071506;28;20041;-60
2022/04/06 01:01:50;;;;;;;7.38;6.78;;;;;;;;;;5074853;28;20377;-59
2022/04/06 01:04:16;;;;;;;7.15;6.65;;;;;;;;;;5061641;28;20610;-60
2022/04/06 01:06:43;;;;;;;8.20;7.60;;;;;;;;;;5072948;28;20078;-60
2022/04/06 01:09:09;;;;;;;7.10;6.60;;;;;;;;;;5075400;28;20039;-52
2022/04/06 01:11:34;;;;;;;6.50;6.00;;;;;;;;;;5074652;28;20024;-51
2022/04/06 01:14:00;;;;;;;7.78;7.15;;;;;;;;;;5076302;28;20043;-51
2022/04/06 01:16:26;;;;;;;8.48;7.80;;;;;;;;;;5074359;28;20024;-54
2022/04/06 01:18:51;;;;;;;6.40;5.90;;;;;;;;;;5074247;28;20043;-60
2022/04/06 01:21:16;;;;;;;6.28;5.78;;;;;;;;;;5074539;28;20032;-50
2022/04/06 01:23:44;;;;;;;7.88;7.32;;;;;;;;;;5075544;28;20063;-53
2022/04/06 01:26:10;;;;;;;7.00;6.50;;;;;;;;;;5077135;28;20454;-49
2022/04/06 01:28:36;;;;;;;7.15;6.65;;;;;;;;;;5076125;28;20476;-52
2022/04/06 01:31:03;;;;;;;7.47;6.97;;;;;;;;;;5069989;28;20024;-53
2022/04/06 01:33:28;;;;;;;7.10;6.60;;;;;;;;;;5074227;28;20123;-50
2022/04/06 01:35:55;;;;;;;8.02;7.43;;;;;;;;;;5076578;28;20122;-53
2022/04/06 01:38:21;;;;;;;7.50;7.00;;;;;;;;;;5077496;28;20023;-59
2022/04/06 01:40:46;;;;;;;7.80;7.25;;;;;;;;;;5076560;28;20036;-59
2022/04/06 01:43:12;;;;;;;6.05;5.65;;;;;;;;;;5076644;28;20028;-60
2022/04/06 01:45:38;;;;;;;6.75;6.25;;;;;;;;;;5076539;28;20116;-51
2022/04/06 01:48:04;;;;;;;6.50;5.95;;;;;;;;;;5075863;28;20220;-49
2022/04/06 01:53:13;;;;;;;6.90;6.40;;;;;;;;;;5075504;28;20024;-53
2022/04/06 01:55:38;;;;;;;7.50;6.90;;;;;;;;;;5075754;28;20468;-59
2022/04/06 01:58:04;;;;;;;7.57;6.97;;;;;;;;;;5071256;28;20029;-59
2022/04/06 02:00:29;;;;;;;6.82;6.32;;;;;;;;;;5074348;28;20039;-54
2022/04/06 02:02:55;;;;;;;5.95;5.53;;;;;;;;;;5069611;28;20347;-54
2022/04/06 02:05:21;;;;;;;6.20;5.72;;;;;;;;;;5074472;28;20039;-51
2022/04/06 02:07:47;;;;;;;7.80;7.10;;;;;;;;;;5076944;28;20462;-60
2022/04/06 02:10:14;;;;;;;7.70;7.13;;;;;;;;;;5073753;28;20078;-50
2022/04/06 02:12:41;;;;;;;6.47;5.97;;;;;;;;;;5073631;28;20538;-53
2022/04/06 02:15:10;;;;;;;6.72;6.22;;;;;;;;;;5075888;28;20120;-53
2022/04/06 02:17:35;;;;;;;7.78;7.20;;;;;;;;;;5073136;28;20052;-59
2022/04/06 02:20:01;;;;;;;7.22;6.70;;;;;;;;;;5074709;28;20028;-60
2022/04/06 02:22:26;;;;;;;7.65;7.05;;;;;;;;;;5074231;28;20357;-53
2022/04/06 02:24:52;;;;;;;8.27;7.68;;;;;;;;;;5074757;28;20443;-49
2022/04/06 02:27:17;;;;;;;7.22;6.72;;;;;;;;;;5077102;28;20036;-60
2022/04/06 02:29:43;;;;;;;7.95;7.35;;;;;;;;;;5077711;28;20032;-59
2022/04/06 02:32:09;;;;;;;7.45;6.85;;;;;;;;;;5078230;28;20040;-58
2022/04/06 02:34:35;;;;;;;6.85;6.35;;;;;;;;;;5077111;28;20031;-48
2022/04/06 02:37:00;;;;;;;7.97;7.43;;;;;;;;;;5078170;28;20036;-48
2022/04/06 02:39:26;;;;;;;7.05;6.55;;;;;;;;;;5077992;28;20038;-48
2022/04/06 02:41:52;;;;;;;6.35;5.85;;;;;;;;;;5074962;28;20256;-47
2022/04/06 02:44:19;;;;;;;6.30;5.80;;;;;;;;;;5077660;28;20436;-52
2022/04/06 02:46:46;;;;;;;7.07;6.53;;;;;;;;;;5076028;28;20115;-52
2022/04/06 02:49:12;;;;;;;7.20;6.68;;;;;;;;;;5080867;28;20111;-49
2022/04/06 02:51:38;;;;;;;6.97;6.38;;;;;;;;;;5074999;28;20103;-52
2022/04/06 02:54:04;;;;;;;6.85;6.35;;;;;;;;;;5079921;28;20047;-50
2022/04/06 02:56:29;;;;;;;7.72;6.97;;;;;;;;;;5077064;28;20055;-51
2022/04/06 02:58:54;;;;;;;7.28;6.78;;;;;;;;;;5078441;28;20028;-49
2022/04/06 03:01:21;;;;;;;6.53;6.03;;;;;;;;;;5074944;28;20041;-48
2022/04/06 03:03:46;;;;;;;7.10;6.60;;;;;;;;;;5078622;28;20047;-59
2022/04/06 03:06:12;;;;;;;6.63;6.10;;;;;;;;;;5078852;28;20032;-59
2022/04/06 03:08:37;;;;;;;6.78;6.28;;;;;;;;;;5078951;28;20036;-60
2022/04/06 03:11:03;;;;;;;6.80;6.30;;;;;;;;;;5078629;28;20028;-59
2022/04/06 03:13:29;;;;;;;8.13;7.53;;;;;;;;;;5074804;28;20032;-60
2022/04/06 03:15:56;;;;;;;7.32;6.82;;;;;;;;;;5079319;28;20032;-60
2022/04/06 03:18:21;;;;;;;7.15;6.65;;;;;;;;;;5075352;28;20561;-50
2022/04/06 03:20:48;;;;;;;7.53;6.93;;;;;;;;;;5075751;28;20036;-51
2022/04/06 03:23:15;;;;;;;7.68;7.18;;;;;;;;;;5079552;28;20059;-59
2022/04/06 03:25:41;;;;;;;7.28;6.68;;;;;;;;;;5080626;28;20029;-53
2022/04/06 03:28:06;;;;;;;7.88;7.28;;;;;;;;;;5079683;28;20365;-51
2022/04/06 03:30:32;;;;;;;7.53;6.93;;;;;;;;;;5073997;28;20040;-51
2022/04/06 03:32:57;;;;;;;7.10;6.60;;;;;;;;;;5077331;28;20061;-59
2022/04/06 03:35:23;;;;;;;7.70;7.10;;;;;;;;;;5079220;28;20102;-49
2022/04/06 03:37:50;;;;;;;7.38;6.78;;;;;;;;;;5077571;28;20050;-59
2022/04/06 03:40:15;;;;;;;8.10;7.40;;;;;;;;;;5058913;28;20047;-59
2022/04/06 03:42:41;;;;;;;6.88;6.38;;;;;;;;;;5077836;28;20362;-54
2022/04/06 03:45:07;;;;;;;8.57;7.88;;;;;;;;;;5080616;28;20028;-53
2022/04/06 03:47:34;;;;;;;7.30;6.80;;;;;;;;;;5078295;28;20120;-50
2022/04/06 03:50:00;;;;;;;7.45;6.90;;;;;;;;;;5077691;28;20024;-49
2022/04/06 03:52:27;;;;;;;6.60;6.10;;;;;;;;;;5073873;28;20028;-52
2022/04/06 03:54:53;;;;;;;6.82;6.32;;;;;;;;;;5074768;28;20037;-53
2022/04/06 03:57:18;;;;;;;7.57;7.00;;;;;;;;;;5077059;28;20036;-59
2022/04/06 03:59:44;;;;;;;8.38;7.68;;;;;;;;;;5077320;28;20024;-60
2022/04/06 04:02:09;;;;;;;7.10;6.60;;;;;;;;;;5072714;28;20094;-59
2022/04/06 04:04:35;;;;;;;6.80;6.30;;;;;;;;;;5076054;28;20063;-59
2022/04/06 04:07:01;;;;;;;7.10;6.45;;;;;;;;;;5078317;28;20398;-59
2022/04/06 04:09:30;;;;;;;5.82;5.43;;;;;;;;;;5076309;28;20466;-60
2022/04/06 04:11:56;;;;;;;7.28;6.68;;;;;;;;;;5074172;28;20484;-59
2022/04/06 04:14:23;;;;;;;6.32;5.82;;;;;;;;;;5074069;28;20053;-53
2022/04/06 04:16:48;;;;;;;8.05;7.45;;;;;;;;;;5077463;28;20041;-59
2022/04/06 04:19:15;;;;;;;8.38;7.68;;;;;;;;;;5072456;28;20032;-60
2022/04/06 04:21:41;;;;;;;9.98;9.02;;;;;;;;;;5074413;28;20465;-59
2022/04/06 04:24:10;;;;;;;7.78;6.90;;;;;;;;;;5073608;28;20127;-59
2022/04/06 04:26:38;;;;;;;6.35;5.85;;;;;;;;;;5076817;28;20025;-60
2022/04/06 04:29:05;;;;;;;7.53;6.93;;;;;;;;;;5078249;28;20038;-51
2022/04/06 04:31:30;;;;;;;7.30;6.70;;;;;;;;;;5071926;28;20028;-59
2022/04/06 04:33:56;;;;;;;7.93;7.35;;;;;;;;;;5076033;28;20046;-59
2022/04/06 04:36:22;;;;;;;6.50;6.00;;;;;;;;;;5074247;28;20436;-51
2022/04/06 04:38:47;;;;;;;8.13;7.45;;;;;;;;;;5076371;28;20392;-59
2022/04/06 04:41:13;;;;;;;8.15;7.47;;;;;;;;;;5076803;28;20093;-51
2022/04/06 04:43:38;;;;;;;6.50;6.00;;;;;;;;;;5071350;28;20453;-59
2022/04/06 04:46:04;;;;;;;7.13;6.63;;;;;;;;;;5074009;28;20089;-59
2022/04/06 04:48:30;;;;;;;7.70;7.20;;;;;;;;;;5071341;28;20042;-59
2022/04/06 04:50:56;;;;;;;9.98;9.27;;;;;;;;;;5076501;28;20020;-53
2022/04/06 04:53:21;;;;;;;7.90;7.40;;;;;;;;;;5074544;28;20055;-53
2022/04/06 04:55:47;;;;;;;7.72;7.13;;;;;;;;;;5075105;28;20036;-54
2022/04/06 04:58:12;;;;;;;9.95;9.00;;;;;;;;;;5081443;28;20093;-51
2022/04/06 05:00:37;;;;;;;10.35;9.70;;;;;;;;;;5072541;28;20068;-59
2022/04/06 05:03:03;;;;;;;8.45;7.80;;;;;;;;;;5075675;28;20036;-60
2022/04/06 05:05:29;;;;;;;9.85;9.18;;;;;;;;;;5075230;28;20338;-53
2022/04/06 05:07:57;;;;;;;12.63;11.82;;;;;;;;;;5076070;28;20024;-51
2022/04/06 05:10:23;;;;;;;12.40;11.45;;;;;;;;;;5071533;28;20036;-53
2022/04/06 05:12:48;;;;;;;12.95;12.15;;;;;;;;;;5075902;28;20031;-59
2022/04/06 05:15:14;;;;;;;11.52;10.73;;;;;;;;;;5072770;28;20099;-59
2022/04/06 05:17:39;;;;;;;11.85;11.10;;;;;;;;;;5075561;28;20036;-59
2022/04/06 05:20:07;;;;;;;9.77;9.18;;;;;;;;;;5069254;28;20025;-59
2022/04/06 05:22:32;;;;;;;5.93;5.53;;;;;;;;;;5075103;28;20135;-60
2022/04/06 05:24:59;;;;;;;6.53;6.03;;;;;;;;;;5074541;28;20119;-54
2022/04/06 05:27:25;;;;;;;7.45;6.90;;;;;;;;;;5056528;28;20100;-50
2022/04/06 05:29:50;;;;;;;5.22;4.82;;;;;;;;;;5055172;28;20028;-59
2022/04/06 05:32:15;;;;;;;5.30;4.90;;;;;;;;;;5069899;28;20436;-60
2022/04/06 05:34:41;;;;;;;7.38;6.78;;;;;;;;;;5069558;28;20036;-54
2022/04/06 05:37:06;;;;;;;6.43;5.82;;;;;;;;;;5070063;28;20064;-53
2022/04/06 05:39:32;;;;;;;5.10;4.70;;;;;;;;;;5070493;28;20063;-51
2022/04/06 05:41:57;;;;;;;5.55;5.15;;;;;;;;;;5071214;28;20067;-49
2022/04/06 05:44:22;;;;;;;5.72;5.22;;;;;;;;;;5071710;28;20722;-54
2022/04/06 05:46:47;;;;;;;5.93;5.50;;;;;;;;;;5068693;28;20064;-59
2022/04/06 05:49:13;;;;;;;5.30;4.90;;;;;;;;;;5069657;28;20032;-59
2022/04/06 05:51:38;;;;;;;6.03;4.75;;;;;;;;;;5068554;28;20048;-59
2022/04/06 05:54:04;;;;;;;5.97;5.47;;;;;;;;;;5067258;28;20496;-59
2022/04/06 05:56:30;;;;;;;4.78;4.38;;;;;;;;;;5070230;28;20024;-59
2022/04/06 05:58:56;;;;;;;5.20;4.80;;;;;;;;;;5066708;28;20032;-59
2022/04/06 06:01:21;;;;;;;7.10;5.13;;;;;;;;;;5070089;28;20330;-59
2022/04/06 06:03:46;;;;;;;5.32;4.93;;;;;;;;;;5072241;28;20523;-59
2022/04/06 06:06:12;;;;;;;8.70;5.30;;;;;;;;;;5073796;28;20024;-57
2022/04/06 06:08:37;;;;;;;5.50;5.07;;;;;;;;;;5070444;28;20024;-54
2022/04/06 06:11:03;;;;;;;5.72;5.20;;;;;;;;;;5074278;28;20517;-54
2022/04/06 06:13:29;;;;;;;7.75;5.38;;;;;;;;;;5067244;28;20029;-54
2022/04/06 06:15:55;;;;;;;5.72;4.50;;;;;;;;;;5068176;28;20177;-51
2022/04/06 06:18:21;;;;;;;4.78;4.40;;;;;;;;;;5070636;28;20069;-59
2022/04/06 06:20:46;;;;;;;5.55;5.05;;;;;;;;;;5074691;28;20082;-53
2022/04/06 06:23:12;;;;;;;6.35;5.75;;;;;;;;;;5072642;28;20055;-52
2022/04/06 06:25:37;;;;;;;5.13;4.72;;;;;;;;;;5044025;28;20028;-51
2022/04/06 06:28:03;;;;;;;5.32;4.93;;;;;;;;;;5072806;28;20036;-51
2022/04/06 06:30:28;;;;;;;4.85;4.45;;;;;;;;;;5071974;28;20036;-51
2022/04/06 06:32:54;;;;;;;5.05;4.65;;;;;;;;;;5070840;28;20032;-53
2022/04/06 06:35:21;;;;;;;4.95;4.55;;;;;;;;;;5070550;28;20024;-53
2022/04/06 06:37:48;;;;;;;5.28;4.82;;;;;;;;;;5071455;28;20067;-50
2022/04/06 06:40:15;;;;;;;5.38;4.88;;;;;;;;;;5073813;28;20028;-50
2022/04/06 06:42:41;;;;;;;6.28;5.80;;;;;;;;;;5072132;28;20036;-54
2022/04/06 06:45:07;;;;;;;4.72;4.32;;;;;;;;;;5069446;28;20696;-51
2022/04/06 06:47:32;;;;;;;5.30;4.90;;;;;;;;;;5070701;28;20181;-52
2022/04/06 06:49:58;;;;;;;5.53;5.03;;;;;;;;;;5074040;28;20080;-51
2022/04/06 06:52:23;;;;;;;6.80;6.30;;;;;;;;;;5075121;28;20021;-50
2022/04/06 06:54:48;;;;;;;4.80;4.40;;;;;;;;;;5071816;28;20050;-51
2022/04/06 06:57:14;;;;;;;9.30;8.70;;;;;;;;;;5075562;28;20028;-53
2022/04/06 06:59:41;;;;;;;7.97;7.40;;;;;;;;;;5075446;28;20039;-53
2022/04/06 07:02:07;;;;;;;7.50;6.93;;;;;;;;;;5072446;28;20040;-59
2022/04/06 07:04:32;;;;;;;15.00;11.45;;;;;;;;;;5073875;28;20040;-59
2022/04/06 07:06:58;;;;;;;7.15;6.60;;;;;;;;;;5074679;28;20056;-50
2022/04/06 07:09:23;;;;;;;10.63;9.98;;;;;;;;;;5073917;28;20024;-50
2022/04/06 07:11:48;;;;;;;8.70;8.13;;;;;;;;;;5070786;28;20109;-53
2022/04/06 07:14:14;;;;;;;13.35;12.55;;;;;;;;;;5072404;28;20060;-58
2022/04/06 07:16:39;;;;;;;10.63;9.93;;;;;;;;;;5072378;28;20040;-58
2022/04/06 07:19:04;;;;;;;8.65;8.07;;;;;;;;;;5070671;28;20070;-51
2022/04/06 07:21:30;;;;;;;10.68;9.98;;;;;;;;;;5067795;28;20075;-58
2022/04/06 07:23:56;;;;;;;12.68;11.68;;;;;;;;;;5072653;28;20079;-58
2022/04/06 07:26:22;;;;;;;16.38;15.27;;;;;;;;;;5070456;28;20470;-58
2022/04/06 07:28:47;;;;;;;28.00;26.33;;;;;;;;;;5074173;28;20046;-57
2022/04/06 07:31:13;;;;;;;16.92;15.98;;;;;;;;;;5067834;28;20043;-50
2022/04/06 07:33:40;;;;;;;31.00;29.35;;;;;;;;;;5067048;28;20048;-51
2022/04/06 07:36:09;;;;;;;30.50;28.77;;;;;;;;;;5070765;28;20130;-51
2022/04/06 07:38:34;;;;;;;30.67;28.98;;;;;;;;;;5072821;28;20077;-49
2022/04/06 07:41:00;;;;;;;28.40;26.83;;;;;;;;;;5074889;28;20048;-53
2022/04/06 07:43:25;;;;;;;40.25;38.10;;;;;;;;;;5073821;28;20024;-51
2022/04/06 07:45:51;;;;;;;32.80;31.00;;;;;;;;;;5074391;28;20052;-51
2022/04/06 07:48:17;;;;;;;39.88;37.83;;;;;;;;;;5072349;28;20035;-52
2022/04/06 07:50:43;;;;;;;21.23;20.02;;;;;;;;;;5073593;28;20687;-53
2022/04/06 07:53:08;;;;;;;24.02;22.73;;;;;;;;;;5076118;28;20032;-53
2022/04/06 07:55:34;;;;;;;33.38;31.58;;;;;;;;;;5070204;28;20029;-52
2022/04/06 07:58:00;;;;;;;31.75;30.08;;;;;;;;;;5070825;28;20087;-50
2022/04/06 08:00:25;;;;;;;32.28;30.60;;;;;;;;;;5073071;28;20036;-53
2022/04/06 08:02:51;;;;;;;31.65;29.95;;;;;;;;;;5071093;28;20033;-53
2022/04/06 08:05:18;;;;;;;34.40;32.63;;;;;;;;;;5072565;28;20040;-52
2022/04/06 08:07:44;;;;;;;17.70;16.70;;;;;;;;;;5073574;28;20062;-51
2022/04/06 08:10:12;;;;;;;23.70;22.35;;;;;;;;;;5072435;28;20033;-52
2022/04/06 08:12:38;;;;;;;19.23;17.55;;;;;;;;;;5072362;28;20052;-51
2022/04/06 08:15:04;;;;;;;17.92;16.92;;;;;;;;;;5068863;28;20027;-50
2022/04/06 08:17:37;;;;;;;15.35;14.45;;;;;;;;;;5068782;28;20025;-54
2022/04/06 08:20:04;;;;;;;17.10;16.10;;;;;;;;;;5071589;28;20110;-50
2022/04/06 08:22:30;;;;;;;13.95;13.15;;;;;;;;;;5074253;28;20039;-53
2022/04/06 08:24:56;;;;;;;19.75;18.55;;;;;;;;;;5069167;28;20075;-49
2022/04/06 08:27:21;;;;;;;14.95;14.05;;;;;;;;;;5072350;28;20765;-52
2022/04/06 08:29:46;;;;;;;18.65;17.55;;;;;;;;;;5071770;28;20044;-52
2022/04/06 08:32:14;;;;;;;16.33;15.43;;;;;;;;;;5068425;28;20028;-52
2022/04/06 08:34:39;;;;;;;17.13;16.13;;;;;;;;;;5067932;28;20503;-58
2022/04/06 08:37:04;;;;;;;27.30;25.80;;;;;;;;;;5069860;28;20066;-60
2022/04/06 08:39:30;;;;;;;25.35;23.98;;;;;;;;;;5072053;28;20457;-58
2022/04/06 08:41:55;;;;;;;24.00;22.70;;;;;;;;;;5072742;28;20082;-51
2022/04/06 08:44:21;;;;;;;26.08;23.70;;;;;;;;;;5071174;28;20043;-53
2022/04/06 08:46:50;;;;;;;22.65;21.45;;;;;;;;;;5068348;28;20119;-53
2022/04/06 08:49:16;;;;;;;27.40;25.90;;;;;;;;;;5072600;28;20031;-59
2022/04/06 08:51:44;;;;;;;22.52;21.33;;;;;;;;;;5071669;28;20032;-58
2022/04/06 08:54:10;;;;;;;23.30;22.00;;;;;;;;;;5069179;28;20028;-59
2022/04/06 08:56:35;;;;;;;27.70;26.13;;;;;;;;;;5068623;28;20024;-58
2022/04/06 08:59:01;;;;;;;30.23;28.63;;;;;;;;;;5067539;28;20389;-59
2022/04/06 09:01:31;;;;;;;30.77;29.17;;;;;;;;;;5072639;28;20041;-60
2022/04/06 09:03:58;;;;;;;27.30;25.90;;;;;;;;;;5070680;28;20370;-60
2022/04/06 09:06:25;;;;;;;28.98;27.38;;;;;;;;;;5067608;28;20035;-60
2022/04/06 09:08:50;;;;;;;17.83;16.67;;;;;;;;;;5069197;28;20424;-60
2022/04/06 09:11:18;;;;;;;11.02;10.27;;;;;;;;;;5070950;28;20024;-60
2022/04/06 09:13:46;;;;;;;7.75;7.25;;;;;;;;;;5070191;28;20117;-60
2022/04/06 09:16:16;;;;;;;9.18;8.57;;;;;;;;;;5067713;28;20051;-59
2022/04/06 09:18:45;;;;;;;6.18;5.68;;;;;;;;;;5071616;28;20046;-59
2022/04/06 09:21:13;;;;;;;6.63;6.13;;;;;;;;;;5071488;28;20049;-59
2022/04/06 09:23:39;;;;;;;6.38;5.88;;;;;;;;;;5074175;28;20051;-60
2022/04/06 09:26:07;;;;;;;10.02;9.43;;;;;;;;;;5071789;28;20036;-60
2022/04/06 09:28:37;;;;;;;5.88;5.47;;;;;;;;;;5068376;28;20478;-59
2022/04/06 09:31:02;;;;;;;5.83;5.43;;;;;;;;;;5073201;28;20044;-59
2022/04/06 09:33:29;;;;;;;6.55;6.07;;;;;;;;;;5070490;28;20035;-59
2022/04/06 09:35:58;;;;;;;6.82;6.30;;;;;;;;;;5071690;28;20163;-59
2022/04/06 09:38:27;;;;;;;7.65;7.15;;;;;;;;;;5075535;28;20488;-59
2022/04/06 09:41:04;;;;;;;11.73;11.02;;;;;;;;;;5070708;28;20048;-59
2022/04/06 09:43:32;;;;;;;6.60;6.10;;;;;;;;;;5054715;28;20031;-59
2022/04/06 09:49:14;;;;;;;6.85;6.35;;;;;;;;;;5073676;28;20036;-59
2022/04/06 09:51:44;;;;;;;8.90;8.30;;;;;;;;;;5076711;28;20040;-59
2022/04/06 09:54:12;;;;;;;6.35;5.95;;;;;;;;;;5077783;28;20033;-59
2022/04/06 09:56:39;;;;;;;8.20;7.60;;;;;;;;;;5074008;28;20047;-52
2022/04/06 09:59:05;;;;;;;9.63;9.02;;;;;;;;;;5074455;28;20077;-53
2022/04/06 10:01:39;;;;;;;7.53;7.03;;;;;;;;;;5076623;28;20036;-52
2022/04/06 10:04:06;;;;;;;11.32;10.63;;;;;;;;;;5076092;28;20111;-59
2022/04/06 10:06:39;;;;;;;16.58;8.63;;;;;;;;;;5073605;28;20032;-59
2022/04/06 10:09:07;;;;;;;9.40;8.75;;;;;;;;;;5075379;28;20039;-58
2022/04/06 10:11:39;;;;;;;14.02;13.05;;;;;;;;;;5075007;28;20354;-59
2022/04/06 10:14:06;;;;;;;7.78;7.18;;;;;;;;;;5078341;28;20562;-53
2022/04/06 10:16:35;;;;;;;11.63;10.93;;;;;;;;;;5074376;28;20108;-52
2022/04/06 10:19:01;;;;;;;11.80;10.93;;;;;;;;;;5074662;28;20473;-51
2022/04/06 10:21:36;;;;;;;11.23;10.52;;;;;;;;;;5075312;28;20032;-50
2022/04/06 10:24:26;;;;;;;9.85;9.25;;;;;;;;;;5068027;28;20377;-51
2022/04/06 10:27:06;;;;;;;7.93;7.43;;;;;;;;;;5070940;28;20029;-51
2022/04/06 10:29:31;;;;;;;13.50;12.68;;;;;;;;;;5069296;28;20037;-50
2022/04/06 10:31:57;;;;;;;19.00;17.90;;;;;;;;;;5070417;28;20050;-49
2022/04/06 10:34:30;;;;;;;11.63;10.93;;;;;;;;;;5072304;28;20020;-52
2022/04/06 10:37:11;;;;;;;10.32;9.65;;;;;;;;;;5070527;28;20109;-53
2022/04/06 10:39:51;;;;;;;12.10;11.20;;;;;;;;;;5071539;28;20043;-52
2022/04/06 10:42:34;;;;;;;23.60;22.35;;;;;;;;;;5070019;28;20113;-50
2022/04/06 10:45:02;;;;;;;8.63;8.02;;;;;;;;;;5070216;28;20028;-52
2022/04/06 10:47:29;;;;;;;7.20;6.70;;;;;;;;;;5071502;28;20032;-59
2022/04/06 10:50:15;;;;;;;7.90;7.40;;;;;;;;;;5075459;28;20136;-58
2022/04/06 10:52:43;;;;;;;5.78;5.28;;;;;;;;;;5070153;28;20619;-52
2022/04/06 10:55:20;;;;;;;6.70;6.20;;;;;;;;;;5069587;28;20109;-53
2022/04/06 10:58:03;;;;;;;6.70;6.20;;;;;;;;;;5077511;28;20188;-51
2022/04/06 11:00:30;;;;;;;7.60;6.88;;;;;;;;;;5070572;28;20044;-50
2022/04/06 11:03:13;;;;;;;6.25;5.75;;;;;;;;;;5070677;28;20037;-52
2022/04/06 11:05:52;;;;;;;8.35;6.82;;;;;;;;;;5072750;28;20437;-51
2022/04/06 11:11:46;;;;;;;6.65;6.15;;;;;;;;;;5071982;28;20044;-52
2022/04/06 11:14:29;;;;;;;7.07;6.47;;;;;;;;;;5075101;28;20040;-59
2022/04/06 11:16:54;;;;;;;6.65;6.15;;;;;;;;;;5074532;28;20043;-59
2022/04/06 11:19:20;;;;;;;6.55;6.05;;;;;;;;;;5074318;28;20420;-59
2022/04/06 11:21:49;;;;;;;7.22;4.97;;;;;;;;;;5073543;28;20037;-59
2022/04/06 11:24:31;;;;;;;5.82;5.32;;;;;;;;;;5073211;28;20036;-58
2022/04/06 11:26:56;;;;;;;6.05;5.55;;;;;;;;;;5069653;28;20043;-59
2022/04/06 11:29:28;;;;;;;15.98;14.98;;;;;;;;;;5073504;28;20040;-59
2022/04/06 11:32:07;;;;;;;24.23;22.92;;;;;;;;;;5072223;28;20051;-59
2022/04/06 11:34:37;;;;;;;31.02;29.42;;;;;;;;;;5071827;28;20120;-59
2022/04/06 11:37:04;;;;;;;26.10;24.70;;;;;;;;;;5071273;28;20068;-59
2022/04/06 11:39:30;;;;;;;33.33;31.48;;;;;;;;;;5072905;28;20070;-59
2022/04/06 11:42:00;;;;;;;34.33;32.53;;;;;;;;;;5071503;28;20032;-49
2022/04/06 11:44:26;;;;;;;47.95;45.33;;;;;;;;;;5069817;28;20039;-52
2022/04/06 11:46:52;;;;;;;41.60;39.47;;;;;;;;;;5069309;28;20700;-59
2022/04/06 11:49:24;;;;;;;27.92;26.38;;;;;;;;;;5070066;28;20040;-59
2022/04/06 11:51:50;;;;;;;29.95;28.38;;;;;;;;;;5072678;28;20060;-60
2022/04/06 11:54:17;;;;;;;28.05;26.55;;;;;;;;;;5073644;28;20101;-60
2022/04/06 11:56:42;;;;;;;41.15;39.05;;;;;;;;;;5072997;28;20064;-59
2022/04/06 11:59:16;;;;;;;35.25;33.45;;;;;;;;;;5072589;28;20079;-60
2022/04/06 12:01:42;;;;;;;32.92;31.13;;;;;;;;;;5071824;28;20063;-60
2022/04/06 12:04:22;;;;;;;33.50;31.75;;;;;;;;;;5068508;28;20293;-60
2022/04/06 12:06:49;;;;;;;32.05;30.17;;;;;;;;;;5074730;28;20062;-59
2022/04/06 12:09:15;;;;;;;25.13;23.80;;;;;;;;;;5073178;28;20120;-59
2022/04/06 12:11:40;;;;;;;23.80;22.55;;;;;;;;;;5071340;28;20028;-59
2022/04/06 12:14:10;;;;;;;29.20;27.70;;;;;;;;;;5073823;28;20032;-59
2022/04/06 12:16:40;;;;;;;36.47;34.58;;;;;;;;;;5072871;28;20032;-59
2022/04/06 12:19:12;;;;;;;32.90;31.02;;;;;;;;;;5075945;28;20357;-60
2022/04/06 12:21:46;;;;;;;19.08;18.00;;;;;;;;;;5075942;28;20036;-60
2022/04/06 12:24:12;;;;;;;23.83;22.52;;;;;;;;;;5062230;28;20036;-60
2022/04/06 12:26:45;;;;;;;18.40;17.38;;;;;;;;;;5074708;28;20106;-60
2022/04/06 12:29:15;;;;;;;17.27;16.27;;;;;;;;;;5063868;28;20068;-49
2022/04/06 12:31:42;;;;;;;17.63;16.63;;;;;;;;;;5073480;28;20041;-51
2022/04/06 12:34:09;;;;;;;17.20;16.17;;;;;;;;;;5069791;28;20035;-52
2022/04/06 12:36:34;;;;;;;18.67;17.67;;;;;;;;;;5063560;28;20047;-51
2022/04/06 12:39:14;;;;;;;24.17;22.52;;;;;;;;;;5059031;28;20595;-60
2022/04/06 12:41:59;;;;;;;14.35;13.55;;;;;;;;;;5064067;28;20024;-51
2022/04/06 12:44:29;;;;;;;16.13;15.23;;;;;;;;;;5070133;28;20033;-60
2022/04/06 12:46:55;;;;;;;14.25;13.45;;;;;;;;;;5069125;28;20525;-50
2022/04/06 12:49:32;;;;;;;13.10;12.30;;;;;;;;;;5069237;28;20546;-50
2022/04/06 12:52:09;;;;;;;15.68;14.77;;;;;;;;;;5072698;28;20070;-48
2022/04/06 12:54:36;;;;;;;17.20;15.98;;;;;;;;;;5072393;28;20127;-48
2022/04/06 12:57:17;;;;;;;21.10;19.95;;;;;;;;;;5071314;28;20039;-50
2022/04/06 12:59:46;;;;;;;16.23;15.32;;;;;;;;;;5074249;28;20044;-47
2022/04/06 13:02:25;;;;;;;10.23;9.63;;;;;;;;;;5067387;28;20389;-60
2022/04/06 13:04:52;;;;;;;12.35;11.65;;;;;;;;;;5069274;28;20043;-59
2022/04/06 13:07:18;;;;;;;15.98;15.07;;;;;;;;;;5070792;28;20032;-60
2022/04/06 13:09:50;;;;;;;16.00;15.10;;;;;;;;;;5070456;28;20032;-60
2022/04/06 13:12:16;;;;;;;17.95;16.95;;;;;;;;;;5068635;28;20402;-49
2022/04/06 13:14:42;;;;;;;17.98;16.88;;;;;;;;;;5070671;28;20110;-51
2022/04/06 13:17:07;;;;;;;20.83;19.60;;;;;;;;;;5069440;28;20466;-60
2022/04/06 13:19:32;;;;;;;21.40;20.23;;;;;;;;;;5065254;28;20039;-60
2022/04/06 13:21:58;;;;;;;24.85;23.55;;;;;;;;;;5069411;28;20628;-61
2022/04/06 13:24:24;;;;;;;28.80;27.27;;;;;;;;;;5069602;28;20039;-60
2022/04/06 13:26:50;;;;;;;19.52;18.42;;;;;;;;;;5047507;28;20032;-60
2022/04/06 13:29:15;;;;;;;24.58;23.27;;;;;;;;;;5067372;28;20089;-61
2022/04/06 13:31:42;;;;;;;28.35;26.85;;;;;;;;;;5070935;28;20378;-60
2022/04/06 13:34:08;;;;;;;35.00;33.15;;;;;;;;;;5068130;28;20595;-60
2022/04/06 13:36:33;;;;;;;26.00;24.60;;;;;;;;;;5067412;28;20036;-60
2022/04/06 13:38:59;;;;;;;28.67;27.17;;;;;;;;;;5067584;28;20043;-61
2022/04/06 13:41:24;;;;;;;27.75;26.17;;;;;;;;;;5070118;28;20529;-60
2022/04/06 13:43:49;;;;;;;28.42;26.92;;;;;;;;;;5069220;28;20116;-61
2022/04/06 13:46:15;;;;;;;31.88;30.25;;;;;;;;;;5068452;28;20035;-53
2022/04/06 13:48:40;;;;;;;47.95;45.28;;;;;;;;;;5071060;28;20039;-48
2022/04/06 13:51:06;;;;;;;38.20;36.28;;;;;;;;;;5067308;28;20039;-49
2022/04/06 13:53:32;;;;;;;34.38;32.60;;;;;;;;;;5070381;28;20058;-60
2022/04/06 13:55:58;;;;;;;30.58;28.80;;;;;;;;;;5067348;28;20533;-60
2022/04/06 13:58:23;;;;;;;22.10;20.90;;;;;;;;;;5070366;28;20032;-60
2022/04/06 14:00:49;;;;;;;22.23;21.02;;;;;;;;;;5063895;28;20029;-60
2022/04/06 14:03:14;;;;;;;22.42;21.23;;;;;;;;;;5069211;28;20549;-60
2022/04/06 14:05:41;;;;;;;23.60;22.35;;;;;;;;;;5070232;28;20115;-60
2022/04/06 14:08:07;;;;;;;24.30;22.95;;;;;;;;;;5068441;28;20028;-61
2022/04/06 14:10:32;;;;;;;22.80;21.60;;;;;;;;;;5064953;28;20106;-50
2022/04/06 14:12:57;;;;;;;22.00;20.80;;;;;;;;;;5070636;28;20044;-49
2022/04/06 14:15:23;;;;;;;24.33;22.90;;;;;;;;;;5068220;28;20032;-60
2022/04/06 14:17:48;;;;;;;16.23;15.32;;;;;;;;;;5066598;28;20043;-51
2022/04/06 14:20:14;;;;;;;26.00;24.52;;;;;;;;;;5061929;28;20453;-53
2022/04/06 14:22:39;;;;;;;32.65;30.95;;;;;;;;;;5072793;28;20044;-52
2022/04/06 14:25:19;;;;;;;29.60;28.08;;;;;;;;;;5073808;28;20051;-60
2022/04/06 14:27:46;;;;;;;33.25;31.55;;;;;;;;;;5074312;28;20036;-60
2022/04/06 14:30:12;;;;;;;35.25;33.45;;;;;;;;;;5071917;28;20556;-51
2022/04/06 14:32:38;;;;;;;37.22;35.33;;;;;;;;;;5071491;28;21810;-53
2022/04/06 14:35:04;;;;;;;41.65;39.55;;;;;;;;;;5072601;28;20044;-50
2022/04/06 14:37:29;;;;;;;39.13;37.13;;;;;;;;;;5074479;28;20024;-60
2022/04/06 14:39:54;;;;;;;30.02;28.45;;;;;;;;;;5071064;28;20485;-60
2022/04/06 14:42:20;;;;;;;35.67;33.88;;;;;;;;;;5072352;28;20036;-60
2022/04/06 14:44:45;;;;;;;32.90;31.20;;;;;;;;;;5073165;28;20036;-60